Northpoint, Arkansas
Current Conditions -  °F | °C
As of 9:53 PM on Sunday 23 Nov 2014 (Local Time) from KLIT Reporting Station
Clear Clear  
Wind Chill: 62°   Ceiling: Unl
Heat Index: 62°   Visibility: 10mi
Dew Point: 56°   Wind: 12mph
Humidity: 80%   Direction: 220°SW
Pressure: 29.4"   Gusts: 21mph
Location:  34.8869°N, 92.5324°W
Report Text: KLIT 240353Z 22010G18KT 10SM CLR 17/13 A2940 RMK AO2 SLP955 T01670133
Loading
Personal Weather Stations






























Interactive Weather Map New forecast layout! Learn more

10-Day Weather Forecast

Advertisements
Track Severe Weather on mobile